Time;durP1;ratioP1;P1;durP2;ratioP2;P2;SDS_P1;SDS_P2;PMS_P1;PMS_P2;Temp;Humidity;BMP_temperature;BMP_pressure;BME280_temperature;BME280_humidity;BME280_pressure;Samples;Min_cycle;Max_cycle;Signal;HPM_P1;HPM_P2
2021/03/07 07:26:54;;;;;;;6.53;4.60;;;;;;;;;;6192241;22;20072;-94
2021/03/07 07:54:22;;;;;;;6.70;5.25;;;20.40;30.80;;;;;;6216511;22;20028;-95
2021/03/07 07:57:00;;;;;;;7.95;6.30;;;20.60;30.40;;;;;;6213780;23;20006;-94
2021/03/07 07:59:55;;;;;;;7.55;5.65;;;20.40;31.70;;;;;;6211719;23;20005;-94
2021/03/07 08:02:52;;;;;;;6.65;5.95;;;21.30;31.40;;;;;;6242099;23;20001;-94
2021/03/07 08:05:26;;;;;;;6.50;5.40;;;20.70;29.00;;;;;;6216178;23;20004;-94
2021/03/07 08:08:06;;;;;;;6.15;5.18;;;21.40;32.90;;;;;;6213061;23;19988;-94
2021/03/07 08:10:50;;;;;;;5.85;5.32;;;20.40;28.40;;;;;;6197308;23;20008;-94
2021/03/07 08:13:43;;;;;;;8.15;5.32;;;19.60;28.30;;;;;;6186866;23;20020;-94
2021/03/07 08:16:08;;;;;;;9.35;5.80;;;19.70;29.00;;;;;;6184503;23;20062;-92
2021/03/07 08:18:56;;;;;;;8.57;5.50;;;19.20;28.60;;;;;;6186247;23;20091;-93
2021/03/07 08:21:23;;;;;;;8.48;6.90;;;19.70;29.00;;;;;;6188229;23;20443;-93
2021/03/07 08:24:10;;;;;;;8.10;6.30;;;20.00;30.30;;;;;;6186480;23;20019;-94
2021/03/07 08:26:58;;;;;;;9.13;7.07;;;21.20;30.00;;;;;;6186657;23;20013;-92
2021/03/07 08:29:47;;;;;;;12.35;9.95;;;21.80;30.80;;;;;;6186318;23;20021;-92
2021/03/07 08:32:45;;;;;;;16.48;12.90;;;22.00;28.90;;;;;;6185598;23;20012;-93
2021/03/07 08:35:24;;;;;;;22.08;16.50;;;21.60;29.70;;;;;;6174990;23;20024;-92
2021/03/07 08:38:14;;;;;;;22.67;17.30;;;20.90;29.80;;;;;;6192277;23;20358;-92
2021/03/07 08:40:44;;;;;;;23.42;16.05;;;20.60;29.60;;;;;;6210552;23;20008;-92
2021/03/07 08:43:25;;;;;;;26.70;15.63;;;20.90;31.50;;;;;;6212543;23;20016;-92
2021/03/07 08:46:07;;;;;;;22.77;16.27;;;20.70;29.00;;;;;;6210790;23;20059;-92
2021/03/07 08:48:34;;;;;;;17.23;12.02;;;;;;;;;;6211177;23;20009;-92
2021/03/07 08:51:00;;;;;;;12.88;10.68;;;;;;;;;;6212758;23;20095;-93
2021/03/07 08:53:30;;;;;;;17.85;12.70;;;;;;;;;;6213521;23;20103;-92
2021/03/07 08:55:56;;;;;;;17.90;13.07;;;;;;;;;;6212437;23;20094;-92
2021/03/07 08:58:26;;;;;;;17.05;13.30;;;;;;;;;;6212694;23;20019;-91
2021/03/07 09:00:53;;;;;;;16.48;13.52;;;;;;;;;;6212443;23;20012;-90
2021/03/07 09:03:22;;;;;;;19.05;13.73;;;;;;;;;;6213115;23;20039;-91
2021/03/07 09:05:49;;;;;;;17.58;12.77;;;;;;;;;;6211193;23;20076;-91
2021/03/07 09:08:15;;;;;;;15.35;11.40;;;;;;;;;;6211936;23;20032;-91
2021/03/07 09:10:45;;;;;;;17.17;12.27;;;;;;;;;;6213327;23;20179;-91
2021/03/07 09:13:14;;;;;;;13.18;11.77;;;;;;;;;;6211217;23;20091;-91
2021/03/07 09:15:59;;;;;;;13.77;11.18;;;;;;;;;;6214097;23;20009;-92
2021/03/07 09:18:26;;;;;;;16.00;12.65;;;20.70;29.70;;;;;;6219990;23;20012;-90
2021/03/07 09:20:51;;;;;;;14.07;11.82;;;22.40;28.40;;;;;;6217994;23;20505;-89
2021/03/07 09:23:37;;;;;;;14.60;11.77;;;21.50;27.70;;;;;;6213837;23;20015;-92
2021/03/07 09:26:13;;;;;;;16.92;12.27;;;19.30;28.20;;;;;;6217286;23;20013;-92
2021/03/07 09:28:52;;;;;;;15.07;9.95;;;20.00;27.90;;;;;;6214437;23;20008;-91
2021/03/07 09:31:58;;;;;;;16.67;10.05;;;20.40;31.20;;;;;;6227506;23;20020;-93
2021/03/07 09:34:32;;;;;;;13.95;8.88;;;20.90;27.80;;;;;;6214677;22;20864;-90
2021/03/07 09:37:02;;;;;;;11.75;7.75;;;21.10;29.40;;;;;;6237710;22;20075;-91
2021/03/07 09:39:39;;;;;;;;;;;;;;;;;;;;;
2021/03/07 09:42:15;;;;;;;13.68;8.07;;;19.90;28.40;;;;;;6269517;23;20008;-91
2021/03/07 09:44:51;;;;;;;15.45;8.98;;;19.50;29.40;;;;;;6214812;23;20004;-91
2021/03/07 09:47:26;;;;;;;18.02;8.65;;;20.30;31.20;;;;;;6216905;23;20016;-91
2021/03/07 09:49:57;;;;;;;20.77;11.05;;;20.30;29.50;;;;;;6241260;23;20007;-90
2021/03/07 09:52:23;;;;;;;24.15;11.43;;;20.10;33.00;;;;;;6235316;22;20016;-89
2021/03/07 09:54:56;;;;;;;17.30;9.82;;;18.60;28.80;;;;;;6226684;23;20506;-90
2021/03/07 09:57:25;;;;;;;22.17;11.18;;;18.30;30.30;;;;;;6226077;23;20019;-91
2021/03/07 09:59:52;;;;;;;18.98;9.90;;;18.80;29.20;;;;;;6216614;23;20004;-92
2021/03/07 10:02:19;;;;;;;11.05;7.60;;;19.50;30.00;;;;;;6195798;23;20023;-91
2021/03/07 10:04:47;;;;;;;13.10;7.55;;;19.80;31.20;;;;;;6216000;23;20040;-91
2021/03/07 10:07:15;;;;;;;17.73;8.40;;;19.50;30.90;;;;;;6215977;23;20544;-91
2021/03/07 10:10:05;;;;;;;11.10;7.32;;;17.80;31.80;;;;;;6215274;23;20058;-91
2021/03/07 10:12:54;;;;;;;9.60;6.00;;;16.70;30.00;;;;;;6217037;23;20012;-91
2021/03/07 10:15:30;;;;;;;16.25;5.63;;;17.40;30.00;;;;;;6215835;23;20012;-91
2021/03/07 10:18:05;;;;;;;11.02;5.15;;;17.80;34.20;;;;;;6222526;23;20016;-92
2021/03/07 10:20:45;;;;;;;10.30;6.53;;;18.10;31.70;;;;;;6230711;23;20028;-92
2021/03/07 10:23:11;;;;;;;10.25;5.43;;;14.90;31.90;;;;;;6230316;23;20008;-92
2021/03/07 10:25:40;;;;;;;9.57;5.72;;;15.90;34.60;;;;;;6204678;23;20035;-92
2021/03/07 10:28:27;;;;;;;9.80;4.70;;;16.40;35.60;;;;;;6230184;23;20792;-92
2021/03/07 10:30:57;;;;;;;9.15;5.72;;;16.70;31.50;;;;;;6225486;23;20019;-92
2021/03/07 10:33:39;;;;;;;9.73;5.70;;;17.00;29.90;;;;;;6225704;23;20015;-92
2021/03/07 10:36:39;;;;;;;10.63;5.13;;;17.10;32.50;;;;;;6227371;23;20024;-95
2021/03/07 10:39:11;;;;;;;9.90;5.65;;;17.40;30.10;;;;;;6218944;23;20019;-91
2021/03/07 10:41:37;;;;;;;7.88;5.47;;;16.20;32.00;;;;;;6217785;23;20004;-91
2021/03/07 10:44:06;;;;;;;8.68;4.32;;;16.80;30.10;;;;;;6218536;23;20011;-92
2021/03/07 10:51:08;;;;;;;8.10;4.35;;;15.80;30.90;;;;;;6231152;23;20023;-96
2021/03/07 10:53:37;;;;;;;9.32;4.78;;;17.70;30.50;;;;;;6226532;23;20067;-95
2021/03/07 10:56:03;;;;;;;6.63;4.28;;;17.20;28.80;;;;;;6198756;23;20022;-95
2021/03/07 11:01:35;;;;;;;6.15;4.05;;;17.30;32.70;;;;;;6229894;23;20047;-96
2021/03/07 11:04:01;;;;;;;8.65;4.10;;;17.80;34.00;;;;;;6200512;23;20091;-96
2021/03/07 11:06:27;;;;;;;9.07;4.07;;;18.70;30.30;;;;;;6220732;23;20008;-96
2021/03/07 11:08:55;;;;;;;5.97;4.20;;;19.00;30.00;;;;;;6222625;23;20533;-95
2021/03/07 11:11:21;;;;;;;7.53;3.97;;;19.30;30.10;;;;;;6220919;23;20012;-95
2021/03/07 11:13:50;;;;;;;5.72;3.72;;;19.70;30.90;;;;;;6219820;23;20442;-96
2021/03/07 11:16:16;;;;;;;6.03;3.60;;;18.30;27.90;;;;;;6220754;23;20027;-96
2021/03/07 11:18:44;;;;;;;6.70;3.75;;;19.50;29.40;;;;;;6231638;23;20019;-95
2021/03/07 11:21:26;;;;;;;5.53;3.42;;;;;;;;;;6227937;23;20453;-96
2021/03/07 11:23:54;;;;;;;5.70;3.38;;;20.40;29.80;;;;;;6222533;23;20020;-96
2021/03/07 11:26:20;;;;;;;3.95;3.53;;;20.50;27.70;;;;;;6223576;23;20015;-96
2021/03/07 11:28:48;;;;;;;8.40;4.72;;;19.50;29.40;;;;;;6198027;23;20007;-96
2021/03/07 11:31:23;;;;;;;4.57;3.30;;;19.20;29.90;;;;;;6197475;23;20012;-96
2021/03/07 11:33:49;;;;;;;7.00;3.50;;;19.10;29.20;;;;;;6220908;23;20019;-96
2021/03/07 11:36:16;;;;;;;5.53;3.17;;;18.20;30.60;;;;;;6224762;23;20012;-96
2021/03/07 11:42:03;;;;;;;4.43;3.58;;;;;;;;;;6258734;23;20016;-96
2021/03/07 11:44:34;;;;;;;4.88;3.33;;;;;;;;;;6232145;23;20028;-96
2021/03/07 11:47:13;;;;;;;6.85;3.40;;;;;;;;;;6206944;23;20004;-96
2021/03/07 11:50:37;;;;;;;4.60;3.40;;;19.80;30.00;;;;;;6206337;23;20016;-96
2021/03/07 11:53:13;;;;;;;4.85;3.92;;;;;;;;;;6188525;23;20008;-96
2021/03/07 11:55:41;;;;;;;4.40;3.13;;;;;;;;;;6225579;23;20020;-96
2021/03/07 11:59:28;;;;;;;4.75;3.40;;;;;;;;;;6202087;23;20095;-96
2021/03/07 12:08:06;;;;;;;5.78;4.18;;;20.30;26.90;;;;;;6235701;23;20016;-95
2021/03/07 12:17:45;;;;;;;3.92;3.42;;;;;;;;;;6268414;23;20026;-95
2021/03/07 12:20:16;;;;;;;5.75;3.40;;;;;;;;;;6236650;22;20008;-96
2021/03/07 12:22:41;;;;;;;4.25;3.42;;;21.20;26.50;;;;;;6200546;23;20024;-96
2021/03/07 12:25:10;;;;;;;4.70;2.92;;;21.90;26.30;;;;;;6223434;23;20085;-96
2021/03/07 12:27:36;;;;;;;5.68;3.28;;;21.40;27.20;;;;;;6224537;23;19992;-96
2021/03/07 12:30:27;;;;;;;4.00;3.15;;;21.50;27.80;;;;;;6216858;23;20008;-96
2021/03/07 12:32:57;;;;;;;3.92;3.20;;;20.90;26.40;;;;;;6229185;23;20005;-96
2021/03/07 12:35:23;;;;;;;3.85;3.35;;;21.50;27.30;;;;;;6238774;23;20022;-94
2021/03/07 12:37:49;;;;;;;4.63;3.33;;;21.40;27.10;;;;;;6253689;22;20043;-96
2021/03/07 12:40:18;;;;;;;4.45;3.40;;;;;;;;;;6223744;23;20016;-95
2021/03/07 12:42:44;;;;;;;3.90;3.10;;;;;;;;;;6247298;23;20422;-96
2021/03/07 12:45:11;;;;;;;3.92;3.20;;;;;;;;;;6224721;23;20016;-96
2021/03/07 12:47:36;;;;;;;4.38;3.45;;;21.30;26.60;;;;;;6251037;23;20001;-95
2021/03/07 12:50:04;;;;;;;4.20;3.35;;;21.50;27.70;;;;;;6244703;23;20007;-95
2021/03/07 12:52:30;;;;;;;6.00;3.47;;;;;;;;;;6248717;23;20062;-96
2021/03/07 12:54:56;;;;;;;5.68;3.15;;;;;;;;;;6247334;23;20024;-96
2021/03/07 12:57:22;;;;;;;7.03;3.33;;;;;;;;;;6245986;23;20019;-96
2021/03/07 12:59:48;;;;;;;5.20;3.63;;;;;;;;;;6249999;23;20039;-96
2021/03/07 13:02:14;;;;;;;4.10;2.90;;;;;;;;;;6243982;23;20012;-95
2021/03/07 13:04:41;;;;;;;5.65;2.72;;;;;;;;;;6218232;23;20008;-95
2021/03/07 13:07:08;;;;;;;5.45;3.28;;;;;;;;;;6228033;23;20040;-96
2021/03/07 13:09:37;;;;;;;3.85;3.05;;;;;;;;;;6224026;23;20013;-96
2021/03/07 13:12:06;;;;;;;3.78;2.80;;;21.20;27.40;;;;;;6219026;23;20058;-96
2021/03/07 13:14:35;;;;;;;3.72;3.30;;;23.60;25.80;;;;;;6251616;23;20142;-96
2021/03/07 13:17:01;;;;;;;6.13;3.13;;;24.50;24.60;;;;;;6230675;23;20044;-96
2021/03/07 13:19:30;;;;;;;4.65;3.33;;;24.90;23.90;;;;;;6222647;23;20067;-96
2021/03/07 13:21:56;;;;;;;4.45;2.53;;;24.20;24.00;;;;;;6231227;23;20046;-96
2021/03/07 13:24:54;;;;;;;3.90;2.95;;;24.60;24.00;;;;;;6231609;22;20057;-96
2021/03/07 13:27:42;;;;;;;4.72;3.00;;;25.00;23.40;;;;;;6170138;23;20025;-96
2021/03/07 13:30:36;;;;;;;3.95;2.92;;;24.40;22.90;;;;;;6170939;23;20009;-95
2021/03/07 13:36:19;;;;;;;3.45;2.40;;;24.70;23.60;;;;;;6187915;23;20823;-96
2021/03/07 13:41:39;;;;;;;3.70;2.38;;;25.00;22.90;;;;;;6213872;23;20047;-96
2021/03/07 13:44:08;;;;;;;3.33;2.50;;;;;;;;;;6187358;23;20434;-96
2021/03/07 13:46:34;;;;;;;4.13;2.13;;;;;;;;;;6190980;23;20236;-93
2021/03/07 13:49:08;;;;;;;2.30;2.00;;;;;;;;;;6207961;22;20024;-96
2021/03/07 13:51:59;;;;;;;3.80;1.90;;;;;;;;;;6224102;23;20024;-96
2021/03/07 13:57:43;;;;;;;2.55;2.25;;;;;;;;;;6234737;23;20019;-96
2021/03/07 14:00:10;;;;;;;2.92;2.60;;;;;;;;;;6224637;23;20005;-96
2021/03/07 14:02:36;;;;;;;;;;;;;;;;;;6224081;23;20008;-96
2021/03/07 14:05:08;;;;;;;3.05;2.38;;;;;;;;;;6219758;23;19935;-96
2021/03/07 14:08:00;;;;;;;3.53;2.45;;;;;;;;;;6222308;23;20009;-96
2021/03/07 14:10:26;;;;;;;3.75;2.55;;;;;;;;;;6230476;23;20068;-96
2021/03/07 14:13:24;;;;;;;2.83;2.38;;;24.70;22.20;;;;;;6218737;23;20011;-96
2021/03/07 14:16:03;;;;;;;4.78;2.90;;;22.50;24.10;;;;;;6220086;23;20008;-96
2021/03/07 14:18:29;;;;;;;2.90;2.58;;;21.80;24.10;;;;;;6199248;23;20428;-95
2021/03/07 14:21:48;;;;;;;5.40;3.13;;;22.20;24.10;;;;;;6232664;23;20011;-96
2021/03/07 14:24:14;;;;;;;4.38;2.80;;;21.90;24.80;;;;;;6222702;23;20020;-96
2021/03/07 14:26:40;;;;;;;5.35;2.60;;;21.70;24.60;;;;;;6198105;23;20047;-96
2021/03/07 14:29:49;;;;;;;4.45;2.83;;;21.50;24.80;;;;;;6232202;23;20015;-96
2021/03/07 14:32:19;;;;;;;5.35;2.90;;;21.30;25.00;;;;;;6222457;23;20005;-96
2021/03/07 14:34:45;;;;;;;6.20;3.28;;;21.50;24.90;;;;;;6217982;23;20021;-95
2021/03/07 14:37:11;;;;;;;6.57;3.17;;;21.90;24.60;;;;;;6208951;23;20083;-95
2021/03/07 14:39:42;;;;;;;3.67;2.70;;;22.00;24.70;;;;;;6184725;23;20095;-95
2021/03/07 14:42:08;;;;;;;4.10;2.50;;;21.80;24.80;;;;;;6181809;23;20040;-95
2021/03/07 14:44:35;;;;;;;5.35;3.08;;;21.10;25.40;;;;;;6182067;23;20009;-95
2021/03/07 14:47:00;;;;;;;4.25;2.78;;;20.60;25.70;;;;;;6182224;23;20005;-95
2021/03/07 14:49:37;;;;;;;3.33;2.92;;;20.30;26.30;;;;;;6159183;23;20100;-96
2021/03/07 14:52:09;;;;;;;4.20;3.33;;;20.00;26.20;;;;;;6182904;23;20020;-96
2021/03/07 14:54:38;;;;;;;5.75;2.95;;;20.00;26.20;;;;;;6186546;23;20028;-96
2021/03/07 14:57:04;;;;;;;4.80;3.38;;;20.20;26.40;;;;;;6185178;23;20013;-96
2021/03/07 14:59:41;;;;;;;4.78;3.10;;;20.00;26.40;;;;;;6185474;23;20025;-95
2021/03/07 15:02:10;;;;;;;5.03;3.20;;;19.00;27.10;;;;;;6185431;23;20013;-95
2021/03/07 15:04:38;;;;;;;4.28;3.15;;;18.90;27.20;;;;;;6187054;23;20013;-96
2021/03/07 15:07:07;;;;;;;4.60;3.53;;;18.90;27.40;;;;;;6186255;23;20092;-96
2021/03/07 15:09:36;;;;;;;4.88;3.72;;;18.60;27.80;;;;;;6186778;23;20016;-96
2021/03/07 15:12:18;;;;;;;;;;;;;;;;;;;;;
2021/03/07 15:14:52;;;;;;;4.75;3.63;;;17.50;29.10;;;;;;6187110;23;20089;-96
2021/03/07 15:17:41;;;;;;;5.80;3.95;;;17.40;29.40;;;;;;6163642;23;20017;-95
2021/03/07 15:20:08;;;;;;;7.07;3.45;;;17.10;29.60;;;;;;6141610;23;20033;-95
2021/03/07 15:22:44;;;;;;;7.93;4.10;;;16.20;30.20;;;;;;6162826;23;20029;-96
2021/03/07 15:25:11;;;;;;;5.22;3.92;;;15.20;32.20;;;;;;6192677;23;20045;-94
